Terminal Aerodrome Forecast
Issued by NWS Louisville, KY

Home | Current Version | Previous Version | Text Only | Print | Product List | Glossary On
Versions: 1 2 3 4 5 6 7 8 9 10 11 12 13 14 15 16 17 18 19 20
474
FTUS43 KLMK 251122
TAFSDF
TAF
KSDF 251122Z 2512/2618 32006KT P6SM OVC015
     FM251600 34008KT P6SM BKN025
     FM252000 34007KT P6SM BKN035
     FM252200 35005KT P6SM SCT035
     FM260200 35004KT P6SM SCT035 BKN100=

USA.gov is the U.S. government's official web portal to all federal, state and local government web resources and services.